Time;durP1;ratioP1;P1;durP2;ratioP2;P2;SDS_P1;SDS_P2;PMS_P1;PMS_P2;Temp;Humidity;BMP_temperature;BMP_pressure;BME280_temperature;BME280_humidity;BME280_pressure;Samples;Min_cycle;Max_cycle;Signal;HPM_P1;HPM_P2
2022/11/03 00:01:42;;;;;;;6.80;3.03;;;2.30;96.30;;;;;;4917551;29;20460;-76
2022/11/03 00:04:10;;;;;;;6.10;2.70;;;2.20;96.30;;;;;;4917473;29;20448;-76
2022/11/03 00:06:36;;;;;;;7.70;3.03;;;2.20;96.30;;;;;;4916161;29;20429;-83
2022/11/03 00:09:04;;;;;;;7.63;2.53;;;2.10;96.30;;;;;;4916772;29;20416;-77
2022/11/03 00:11:33;;;;;;;4.53;2.40;;;2.10;96.30;;;;;;4916022;29;20232;-78
2022/11/03 00:13:59;;;;;;;7.27;2.10;;;2.20;96.30;;;;;;4916112;29;20808;-76
2022/11/03 00:16:24;;;;;;;6.17;2.80;;;2.30;96.30;;;;;;4917284;29;20416;-76
2022/11/03 00:18:51;;;;;;;4.93;2.37;;;2.30;96.30;;;;;;4916813;29;20415;-76
2022/11/03 00:21:17;;;;;;;6.80;2.37;;;2.30;96.30;;;;;;4915885;29;20242;-76
2022/11/03 00:23:43;;;;;;;11.23;2.90;;;2.30;96.30;;;;;;4917144;29;20405;-77
2022/11/03 00:26:14;;;;;;;8.40;2.80;;;2.20;96.30;;;;;;4917061;29;20204;-76
2022/11/03 00:28:42;;;;;;;5.90;2.77;;;2.20;96.30;;;;;;4916640;29;20409;-76
2022/11/03 00:31:13;;;;;;;7.40;2.70;;;2.20;96.30;;;;;;4916939;29;20500;-76
2022/11/03 00:33:40;;;;;;;7.53;2.93;;;2.30;96.30;;;;;;4917067;29;20495;-76
2022/11/03 00:36:07;;;;;;;9.20;2.73;;;2.40;96.30;;;;;;4915713;29;20416;-76
2022/11/03 00:38:33;;;;;;;5.50;2.23;;;2.50;96.30;;;;;;4916372;29;20902;-77
2022/11/03 00:41:01;;;;;;;6.40;2.53;;;2.40;96.30;;;;;;4916750;29;20439;-78
2022/11/03 00:43:28;;;;;;;4.90;2.50;;;2.40;96.30;;;;;;4915458;29;20181;-77
2022/11/03 00:45:54;;;;;;;6.40;2.20;;;2.40;96.30;;;;;;4914788;29;20459;-76
2022/11/03 00:48:31;;;;;;;5.07;2.50;;;2.30;96.30;;;;;;4916217;29;20499;-76
2022/11/03 00:51:12;;;;;;;4.53;2.23;;;2.20;96.30;;;;;;4915424;29;20435;-76
2022/11/03 00:53:46;;;;;;;3.80;2.27;;;2.10;96.30;;;;;;4916645;29;20877;-77
2022/11/03 00:56:33;;;;;;;6.07;2.57;;;2.10;96.30;;;;;;4916612;29;20579;-77
2022/11/03 00:59:00;;;;;;;7.07;3.00;;;2.00;96.30;;;;;;4915906;29;20417;-79
2022/11/03 05:00:09;;;;;;;25.07;15.07;;;0.80;96.30;;;;;;5978789;23;20372;31
2022/11/03 05:02:35;;;;;;;17.73;8.17;;;0.60;96.30;;;;;;4855654;29;20972;-77
2022/11/03 05:05:04;;;;;;;9.13;4.10;;;0.60;96.30;;;;;;4860227;29;20474;-76
2022/11/03 05:07:33;;;;;;;6.27;3.67;;;0.50;96.30;;;;;;4859688;29;20548;-76
2022/11/03 05:09:59;;;;;;;8.13;2.97;;;0.60;96.30;;;;;;4858601;29;20431;-76
2022/11/03 05:12:25;;;;;;;6.93;2.87;;;0.60;96.30;;;;;;4860112;29;20495;-76
2022/11/03 05:14:51;;;;;;;12.20;2.97;;;0.60;96.30;;;;;;4861379;29;20423;-78
2022/11/03 05:17:25;;;;;;;3.17;1.70;;;0.60;96.30;;;;;;4874180;29;20187;-78
2022/11/03 05:20:00;;;;;;;4.10;2.03;;;0.70;96.30;;;;;;4874958;29;20435;-79
2022/11/03 06:17:38;;;;;;;;;;;;;;;;;;;;;
2022/11/03 07:27:35;;;;;;;7.50;2.40;;;7.10;96.30;;;;;;5038415;23;20495;-76
2022/11/03 07:30:18;;;;;;;4.80;1.83;;;7.30;96.30;;;;;;4920479;29;20425;-76
2022/11/03 07:32:44;;;;;;;4.70;1.80;;;7.40;96.30;;;;;;4901421;29;20396;-77
2022/11/03 07:35:16;;;;;;;4.60;1.73;;;7.50;96.30;;;;;;4899237;29;20945;-77
2022/11/03 07:37:47;;;;;;;5.57;1.73;;;7.60;96.30;;;;;;4899333;29;20417;-76
2022/11/03 09:30:30;;;;;;;7.77;1.73;;;10.30;96.30;;;;;;4876618;29;20502;-79
2022/11/03 09:32:56;;;;;;;5.53;1.57;;;10.40;96.30;;;;;;4878246;29;20553;-78
2022/11/03 09:35:22;;;;;;;6.00;1.63;;;10.50;96.30;;;;;;4877306;29;20181;-77
2022/11/03 09:37:47;;;;;;;4.63;1.63;;;10.60;96.30;;;;;;4877882;29;20257;-76
2022/11/03 09:40:14;;;;;;;4.07;1.90;;;10.60;96.30;;;;;;4878088;29;20177;-78
2022/11/03 09:42:41;;;;;;;4.40;1.23;;;10.60;96.30;;;;;;4879234;29;20654;-79
2022/11/03 09:45:08;;;;;;;3.70;1.40;;;10.70;96.30;;;;;;4879556;29;20462;-79
2022/11/03 09:47:42;;;;;;;7.27;2.10;;;10.70;96.30;;;;;;4879388;29;20421;-78
2022/11/03 09:50:20;;;;;;;9.67;1.43;;;10.80;96.30;;;;;;4878829;29;20418;-79
2022/11/03 09:52:47;;;;;;;7.00;1.07;;;10.80;96.30;;;;;;4878947;29;20418;-79
2022/11/03 09:55:16;;;;;;;3.97;1.20;;;10.90;96.30;;;;;;4880169;29;20415;-79
2022/11/03 09:57:42;;;;;;;2.73;1.47;;;10.90;96.30;;;;;;4879642;29;20517;-79
2022/11/03 10:00:19;;;;;;;3.00;1.20;;;10.90;96.30;;;;;;4879680;29;20418;-79
2022/11/03 10:02:46;;;;;;;3.77;1.13;;;11.20;96.30;;;;;;4877724;29;20430;-79
2022/11/03 10:05:22;;;;;;;6.30;1.93;;;11.30;96.30;;;;;;4878863;29;20521;-79
2022/11/03 10:07:48;;;;;;;3.00;1.20;;;11.70;96.30;;;;;;4879230;29;20421;-79
2022/11/03 10:10:18;;;;;;;6.33;1.43;;;12.80;96.30;;;;;;4880100;29;20418;-79
2022/11/03 10:12:47;;;;;;;5.23;1.40;;;12.20;96.30;;;;;;4879840;29;20498;-78
2022/11/03 10:15:17;;;;;;;6.20;1.57;;;12.50;96.30;;;;;;4879975;29;20903;-79
2022/11/03 10:17:44;;;;;;;4.33;1.57;;;12.80;96.30;;;;;;4879513;29;20430;-79
2022/11/03 10:20:12;;;;;;;5.63;1.83;;;13.30;96.30;;;;;;4884028;29;20473;-79
2022/11/03 10:22:39;;;;;;;4.27;1.43;;;13.40;96.30;;;;;;4884320;29;20418;-80
2022/11/03 10:25:44;;;;;;;2.60;0.97;;;13.50;96.30;;;;;;4884969;29;21005;-80
2022/11/03 10:28:20;;;;;;;3.60;1.37;;;12.90;96.30;;;;;;4881979;29;20509;-77
2022/11/03 10:30:53;;;;;;;4.80;1.27;;;12.70;96.30;;;;;;4881377;29;20434;-77
2022/11/03 10:33:28;;;;;;;10.73;1.17;;;12.40;96.30;;;;;;4880200;29;20406;-77
2022/11/03 10:35:58;;;;;;;2.97;1.30;;;12.40;96.30;;;;;;4880074;29;20960;-78
2022/11/03 10:38:30;;;;;;;4.53;1.67;;;12.60;96.30;;;;;;4879969;29;20985;-77
2022/11/03 10:41:08;;;;;;;3.77;1.90;;;12.90;96.30;;;;;;4880007;29;20445;-78
2022/11/03 10:43:34;;;;;;;4.43;1.60;;;;;;;;;;4879960;29;20413;-77
2022/11/03 10:46:17;;;;;;;4.43;1.70;;;13.00;96.30;;;;;;4881080;29;20972;-77
2022/11/03 10:48:42;;;;;;;2.37;1.13;;;12.70;96.30;;;;;;4879655;29;20418;-77
2022/11/03 10:51:12;;;;;;;4.30;1.27;;;12.90;96.30;;;;;;4881003;29;20521;-78
2022/11/03 10:53:39;;;;;;;10.30;1.83;;;12.90;96.30;;;;;;4881058;29;20169;-77
2022/11/03 10:56:04;;;;;;;2.20;1.70;;;12.90;96.30;;;;;;4881004;29;20473;-77
2022/11/03 10:58:31;;;;;;;3.90;1.40;;;12.90;96.30;;;;;;4879511;29;20434;-77
2022/11/03 11:00:56;;;;;;;7.73;2.10;;;13.10;96.30;;;;;;4880860;29;20204;-78
2022/11/03 11:03:22;;;;;;;4.00;1.63;;;13.40;96.30;;;;;;4880798;29;20512;-78
2022/11/03 11:05:47;;;;;;;4.90;1.23;;;13.20;96.30;;;;;;4880690;29;20206;-78
2022/11/03 11:08:17;;;;;;;3.33;1.63;;;13.30;96.30;;;;;;4880593;29;20209;-79
2022/11/03 11:10:44;;;;;;;2.20;1.70;;;13.50;96.30;;;;;;4880684;29;20228;-77
2022/11/03 11:13:20;;;;;;;5.20;2.40;;;13.30;96.30;;;;;;4881098;29;20418;-79
2022/11/03 11:16:00;;;;;;;2.60;1.70;;;13.10;96.30;;;;;;4879490;29;20437;-78
2022/11/03 11:18:28;;;;;;;6.00;1.73;;;13.00;96.30;;;;;;4879246;29;20431;-77
2022/11/03 11:20:58;;;;;;;6.67;1.83;;;13.10;96.30;;;;;;4880320;29;20975;-78
2022/11/03 11:23:26;;;;;;;3.43;1.40;;;12.90;96.30;;;;;;4878864;29;20438;-78
2022/11/03 11:26:07;;;;;;;4.80;1.60;;;13.10;96.30;;;;;;4878863;29;21018;-78
2022/11/03 11:28:33;;;;;;;5.27;2.13;;;13.00;96.30;;;;;;4879505;29;20442;-77
2022/11/03 11:30:58;;;;;;;4.93;1.90;;;13.20;96.30;;;;;;4879276;29;20438;-76
2022/11/03 11:33:27;;;;;;;5.40;2.50;;;12.90;96.30;;;;;;4879906;29;20177;-77
2022/11/03 11:35:53;;;;;;;12.10;3.50;;;12.80;96.30;;;;;;4879808;29;20182;-78
2022/11/03 11:38:51;;;;;;;3.50;1.87;;;12.70;96.30;;;;;;4879366;29;20425;-77
2022/11/03 11:41:19;;;;;;;4.43;1.80;;;12.70;96.30;;;;;;4893921;29;20261;-78
2022/11/03 11:43:45;;;;;;;6.57;1.90;;;12.80;96.30;;;;;;4878086;29;20986;-78
2022/11/03 11:46:22;;;;;;;7.97;2.57;;;13.10;96.30;;;;;;4879834;29;20548;-77
2022/11/03 11:49:03;;;;;;;3.70;1.80;;;13.10;96.30;;;;;;4878889;29;20173;-78
2022/11/03 11:51:36;;;;;;;6.13;2.60;;;13.20;96.30;;;;;;4878071;29;20442;-77
2022/11/03 11:54:16;;;;;;;7.07;2.30;;;13.20;96.30;;;;;;4876844;29;20414;-79
2022/11/03 11:56:43;;;;;;;4.37;1.93;;;13.40;96.30;;;;;;4879681;29;20450;-80
2022/11/03 11:59:20;;;;;;;4.90;1.90;;;13.20;96.30;;;;;;4894513;29;20417;-79
2022/11/03 12:01:49;;;;;;;8.00;3.03;;;13.20;96.30;;;;;;4879924;29;20441;-79
2022/11/03 12:04:25;;;;;;;7.50;2.87;;;12.80;96.30;;;;;;4894291;29;20794;-79
2022/11/03 12:06:50;;;;;;;6.47;2.57;;;12.80;96.30;;;;;;4893710;29;20430;-79
2022/11/03 12:09:21;;;;;;;6.30;2.30;;;13.00;96.30;;;;;;4894218;29;20474;-79
2022/11/03 12:11:52;;;;;;;6.57;2.50;;;13.10;96.30;;;;;;4879902;29;20201;-79
2022/11/03 12:14:30;;;;;;;6.67;2.70;;;13.30;96.30;;;;;;4894255;29;20418;-79
2022/11/03 12:16:57;;;;;;;5.47;2.70;;;13.50;96.30;;;;;;4893655;29;20410;-79
2022/11/03 12:19:43;;;;;;;4.37;3.00;;;13.60;96.30;;;;;;4879666;29;20410;-79
2022/11/03 12:22:27;;;;;;;5.60;2.50;;;13.40;96.30;;;;;;4893850;29;20473;-79
2022/11/03 12:24:55;;;;;;;11.83;3.70;;;13.30;96.30;;;;;;4879602;29;20461;-79
2022/11/03 12:27:23;;;;;;;6.47;2.40;;;13.20;96.30;;;;;;4892683;29;20438;-79
2022/11/03 12:29:58;;;;;;;6.00;2.33;;;12.90;96.30;;;;;;4876403;29;20450;-79
2022/11/03 12:32:24;;;;;;;3.93;1.80;;;12.90;96.30;;;;;;4858689;29;20446;-79
2022/11/03 12:34:50;;;;;;;3.60;2.20;;;12.70;96.30;;;;;;4860109;29;20885;-80
2022/11/03 12:37:15;;;;;;;6.80;2.20;;;12.70;96.30;;;;;;4858152;29;20466;-79
2022/11/03 12:39:41;;;;;;;3.30;1.57;;;12.80;96.30;;;;;;4891888;29;20194;-79
2022/11/03 12:42:07;;;;;;;2.40;1.70;;;12.70;96.30;;;;;;4877499;29;20262;-79
2022/11/03 12:44:33;;;;;;;5.67;2.10;;;12.70;96.30;;;;;;4892896;29;20217;-78
2022/11/03 12:47:00;;;;;;;2.90;1.33;;;12.70;96.30;;;;;;4891173;29;20465;-79
2022/11/03 12:49:25;;;;;;;3.10;1.37;;;12.60;96.30;;;;;;4876088;29;20174;-79
2022/11/03 12:51:51;;;;;;;3.93;1.77;;;;;;;;;;4879165;29;20844;-79
2022/11/03 12:54:17;;;;;;;4.63;1.90;;;12.40;96.30;;;;;;4879053;29;20249;-79
2022/11/03 12:56:43;;;;;;;8.00;3.30;;;12.40;96.30;;;;;;4878848;29;20202;-79
2022/11/03 12:59:08;;;;;;;7.47;2.00;;;12.40;96.30;;;;;;4877875;29;20181;-79
2022/11/03 13:01:34;;;;;;;5.67;2.20;;;12.50;96.30;;;;;;4878839;29;20249;-78
2022/11/03 13:04:00;;;;;;;5.27;1.97;;;12.30;96.30;;;;;;4878752;29;20237;-79
2022/11/03 13:06:26;;;;;;;4.50;1.77;;;;;;;;;;4907728;29;20225;-79
2022/11/03 13:08:52;;;;;;;8.13;1.90;;;12.20;96.30;;;;;;4878425;29;20177;-79
2022/11/03 13:14:03;;;;;;;8.50;2.10;;;12.10;96.30;;;;;;4879129;29;20172;-79
2022/11/03 13:16:29;;;;;;;40.83;18.53;;;12.20;96.30;;;;;;4878724;29;20429;-79
2022/11/03 13:18:55;;;;;;;3.80;2.67;;;;;;;;;;4876700;29;20434;-79
2022/11/03 13:21:20;;;;;;;11.07;6.53;;;12.00;96.30;;;;;;4877213;29;20217;-79
2022/11/03 13:23:46;;;;;;;9.67;3.20;;;12.10;96.30;;;;;;4877315;29;20204;-79
2022/11/03 13:26:12;;;;;;;10.40;4.27;;;11.80;96.30;;;;;;4878495;29;20713;-79
2022/11/03 13:28:37;;;;;;;4.60;2.73;;;11.70;96.30;;;;;;4878026;29;20200;-79
2022/11/03 13:31:03;;;;;;;4.90;2.60;;;;;;;;;;4876304;29;20213;-79
2022/11/03 13:33:29;;;;;;;5.67;2.73;;;11.50;96.30;;;;;;4877141;29;20177;-79
2022/11/03 13:35:54;;;;;;;5.30;2.33;;;11.40;96.30;;;;;;4878284;29;20429;-79
2022/11/03 13:38:20;;;;;;;8.80;2.43;;;11.30;96.30;;;;;;4876675;29;20186;-79
2022/11/03 13:40:46;;;;;;;7.60;2.10;;;11.30;96.30;;;;;;4877101;29;20209;-79
2022/11/03 13:43:12;;;;;;;6.20;2.40;;;;;;;;;;4878170;29;20182;-79
2022/11/03 13:45:37;;;;;;;8.00;3.43;;;11.40;96.30;;;;;;4877256;29;20236;-79
2022/11/03 13:48:03;;;;;;;5.53;2.20;;;11.50;96.30;;;;;;4877855;29;20177;-79
2022/11/03 14:01:43;;;;;;;5.37;3.73;;;;;;;;;;5072301;23;21084;-80
2022/11/03 14:04:08;;;;;;;7.70;2.90;;;11.10;96.30;;;;;;4902495;29;20429;-78
2022/11/03 14:06:34;;;;;;;9.33;2.80;;;11.00;96.30;;;;;;4901234;29;20209;-79
2022/11/03 14:10:16;;;;;;;5.70;2.90;;;10.90;96.30;;;;;;5069627;28;20622;-77
2022/11/03 14:12:41;;;;;;;7.03;2.30;;;10.90;96.30;;;;;;5068650;28;20908;-77
2022/11/03 14:15:12;;;;;;;7.33;3.77;;;10.70;96.30;;;;;;5068608;28;20175;-79
2022/11/03 14:17:39;;;;;;;7.27;3.57;;;10.60;96.30;;;;;;5069014;28;20232;-79
2022/11/03 14:20:06;;;;;;;7.73;3.37;;;10.60;96.30;;;;;;5069067;28;20920;-79
2022/11/03 14:22:31;;;;;;;6.23;3.10;;;10.50;96.30;;;;;;5069588;28;20479;-80
2022/11/03 14:24:57;;;;;;;6.60;3.57;;;10.40;96.30;;;;;;5070710;28;20409;-79
2022/11/03 14:27:23;;;;;;;6.60;3.40;;;10.40;96.30;;;;;;5069087;28;20201;-79
2022/11/03 14:29:48;;;;;;;7.23;3.73;;;10.40;96.30;;;;;;5068915;28;20301;-79
2022/11/03 14:32:15;;;;;;;8.50;3.90;;;10.40;96.30;;;;;;5070536;28;20191;-79
2022/11/03 14:34:41;;;;;;;6.47;3.00;;;10.20;96.30;;;;;;5070805;28;20175;-79
2022/11/03 14:37:09;;;;;;;11.30;4.67;;;10.20;96.30;;;;;;5072069;28;20405;-79
2022/11/03 14:39:36;;;;;;;11.03;4.10;;;10.10;96.30;;;;;;5070513;28;20179;-79
2022/11/03 14:42:02;;;;;;;9.53;4.00;;;10.00;96.30;;;;;;5068868;28;20447;-79
2022/11/03 14:44:35;;;;;;;10.40;3.70;;;9.90;96.30;;;;;;5069322;28;20628;-79
2022/11/03 14:47:03;;;;;;;6.00;3.73;;;9.70;96.30;;;;;;5067493;28;20417;-79
2022/11/03 14:49:30;;;;;;;5.90;3.67;;;9.60;96.30;;;;;;5069427;28;20449;-79
2022/11/03 14:51:56;;;;;;;14.37;4.73;;;9.60;96.30;;;;;;5068196;28;20948;-79
2022/11/03 14:54:25;;;;;;;8.50;4.47;;;9.60;96.30;;;;;;5067527;28;20418;-79
2022/11/03 14:56:51;;;;;;;11.57;5.10;;;9.50;96.30;;;;;;5067355;28;20417;-79
2022/11/03 14:59:17;;;;;;;16.23;4.57;;;9.40;96.30;;;;;;5067971;28;20901;-79
2022/11/03 15:01:42;;;;;;;11.17;4.40;;;9.30;96.30;;;;;;5067650;28;20666;-79
2022/11/03 15:05:43;;;;;;;8.90;3.87;;;9.20;96.30;;;;;;5069968;28;20533;-79
2022/11/03 15:08:10;;;;;;;7.60;3.70;;;9.10;96.30;;;;;;5068056;28;20892;-79
2022/11/03 15:10:36;;;;;;;12.50;3.97;;;9.00;96.30;;;;;;5070023;28;20436;-79
2022/11/03 15:13:01;;;;;;;12.97;6.50;;;9.00;96.30;;;;;;5081866;28;20491;-79
2022/11/03 15:15:27;;;;;;;10.30;4.13;;;8.90;96.30;;;;;;5093614;28;20178;-80
2022/11/03 15:17:52;;;;;;;10.00;4.20;;;8.80;96.30;;;;;;5095138;28;20238;-80
2022/11/03 15:20:18;;;;;;;8.93;4.10;;;8.80;96.30;;;;;;5115070;28;20242;-80
2022/11/03 15:22:44;;;;;;;8.33;4.90;;;8.70;96.30;;;;;;5105243;28;20194;-79
2022/11/03 15:25:10;;;;;;;9.07;3.63;;;8.60;96.30;;;;;;5069691;28;20206;-80
2022/11/03 15:27:37;;;;;;;12.60;4.50;;;8.60;96.30;;;;;;5068785;28;20412;-80
2022/11/03 15:30:04;;;;;;;29.57;12.60;;;8.50;96.30;;;;;;5068935;28;20778;-79
2022/11/03 15:32:29;;;;;;;11.47;6.03;;;8.50;96.30;;;;;;5068091;28;20519;-79
2022/11/03 15:34:55;;;;;;;18.37;9.97;;;8.40;96.30;;;;;;5068487;28;20459;-80
2022/11/03 15:37:20;;;;;;;24.30;15.10;;;8.40;96.30;;;;;;5068328;28;20189;-79
2022/11/03 15:39:46;;;;;;;8.13;4.57;;;8.40;96.30;;;;;;5068337;28;20788;-79
2022/11/03 15:42:11;;;;;;;10.20;5.17;;;8.40;96.30;;;;;;5068658;28;20248;-79
2022/11/03 15:44:37;;;;;;;6.40;4.40;;;8.30;96.30;;;;;;5068372;28;20203;-79
2022/11/03 15:47:02;;;;;;;8.20;4.30;;;8.20;96.30;;;;;;5069192;28;20182;-80
2022/11/03 15:49:28;;;;;;;16.87;5.20;;;8.20;96.30;;;;;;5069102;28;20186;-80
2022/11/03 15:51:53;;;;;;;8.73;5.13;;;8.20;96.30;;;;;;5070369;28;20184;-80
2022/11/03 15:54:19;;;;;;;10.93;5.00;;;8.10;96.30;;;;;;5071293;28;20525;-80
2022/11/03 15:56:45;;;;;;;23.37;6.20;;;8.10;96.30;;;;;;5069158;28;20546;-80
2022/11/03 15:59:10;;;;;;;15.57;6.70;;;8.10;96.30;;;;;;5070027;28;20167;-80
2022/11/03 16:01:36;;;;;;;7.17;5.63;;;8.10;96.30;;;;;;5068479;28;20720;-80
2022/11/03 16:04:01;;;;;;;13.30;4.90;;;8.10;96.30;;;;;;5068799;28;20207;-80
2022/11/03 16:06:27;;;;;;;11.27;5.63;;;8.10;96.30;;;;;;5069444;28;20175;-80
2022/11/03 16:08:52;;;;;;;13.57;6.17;;;8.10;96.30;;;;;;5069073;28;20181;-80
2022/11/03 16:11:18;;;;;;;10.37;5.37;;;8.10;96.30;;;;;;5070736;28;20198;-79
2022/11/03 16:13:43;;;;;;;13.47;7.67;;;8.10;96.30;;;;;;5072691;28;20828;-80
2022/11/03 16:16:09;;;;;;;8.60;5.73;;;8.10;96.30;;;;;;5068541;28;20647;-80
2022/11/03 16:18:34;;;;;;;11.77;6.80;;;8.10;96.30;;;;;;5058114;28;20187;-81
2022/11/03 16:21:00;;;;;;;15.60;6.10;;;8.10;96.30;;;;;;5052840;28;20195;-81
2022/11/03 16:23:25;;;;;;;9.13;6.50;;;8.10;96.30;;;;;;5057116;28;20270;-81
2022/11/03 16:25:51;;;;;;;12.87;7.10;;;8.00;96.30;;;;;;5059270;28;20207;-81
2022/11/03 16:28:16;;;;;;;12.43;7.50;;;8.10;96.30;;;;;;5057361;28;20185;-81
2022/11/03 16:30:42;;;;;;;12.20;6.87;;;8.00;96.30;;;;;;5024899;28;20629;-81
2022/11/03 16:33:08;;;;;;;9.30;6.40;;;8.00;96.30;;;;;;5056528;28;20222;-81
2022/11/03 16:35:33;;;;;;;15.33;8.60;;;8.10;96.30;;;;;;5025789;28;20687;-81
2022/11/03 16:37:59;;;;;;;12.63;7.10;;;8.10;96.30;;;;;;5035906;28;20218;-82
2022/11/03 16:40:25;;;;;;;18.27;7.43;;;8.10;96.30;;;;;;5035770;28;20214;-81
2022/11/03 16:42:50;;;;;;;12.57;7.60;;;8.10;96.30;;;;;;5037736;28;20247;-81
2022/11/03 16:45:17;;;;;;;13.70;8.30;;;8.10;96.30;;;;;;5038285;28;20663;-81
2022/11/03 16:47:44;;;;;;;12.90;7.50;;;8.20;96.30;;;;;;5046332;28;20175;-82
2022/11/03 16:50:10;;;;;;;14.00;7.40;;;8.10;96.30;;;;;;5055305;28;20417;-81
2022/11/03 16:52:36;;;;;;;16.17;9.13;;;8.20;96.30;;;;;;5050561;28;20471;-81
2022/11/03 16:55:01;;;;;;;20.33;11.00;;;8.20;96.30;;;;;;5046781;28;20832;-81
2022/11/03 16:57:27;;;;;;;20.23;11.87;;;8.20;96.30;;;;;;5035373;28;20595;-81
2022/11/03 16:59:52;;;;;;;13.73;9.13;;;8.20;96.30;;;;;;5045758;28;20172;-81
2022/11/03 17:02:18;;;;;;;15.70;10.80;;;8.20;96.30;;;;;;5055767;28;20206;-80
2022/11/03 17:04:44;;;;;;;14.57;10.33;;;8.20;96.30;;;;;;5050267;28;20675;-80
2022/11/03 17:07:09;;;;;;;14.53;9.60;;;8.20;96.30;;;;;;5034497;28;20667;-82
2022/11/03 17:09:35;;;;;;;19.10;11.00;;;8.40;96.30;;;;;;5046766;28;20543;-82
2022/11/03 17:12:00;;;;;;;24.07;8.90;;;8.30;96.30;;;;;;5048988;28;20183;-82
2022/11/03 17:14:26;;;;;;;9.50;7.80;;;8.30;96.30;;;;;;5050022;28;20214;-82
2022/11/03 17:16:51;;;;;;;12.50;8.53;;;8.30;96.30;;;;;;5057211;28;20244;-81
2022/11/03 17:19:17;;;;;;;20.23;9.77;;;8.20;96.30;;;;;;5056159;28;20179;-82
2022/11/03 17:21:42;;;;;;;16.60;10.53;;;8.20;96.30;;;;;;5045003;28;20295;-82
2022/11/03 17:24:10;;;;;;;23.33;10.67;;;8.20;96.30;;;;;;5038996;28;20210;-82
2022/11/03 17:27:01;;;;;;;12.50;9.97;;;8.20;96.30;;;;;;5055269;28;20632;-82
2022/11/03 17:30:05;;;;;;;14.27;7.33;;;8.20;96.30;;;;;;5056197;28;21101;-82
2022/11/03 17:32:37;;;;;;;15.67;9.77;;;8.20;96.30;;;;;;5053634;28;20512;-82
2022/11/03 17:35:12;;;;;;;15.47;11.20;;;8.20;96.30;;;;;;5055381;28;20452;-83
2022/11/03 17:37:38;;;;;;;18.90;9.57;;;8.20;96.30;;;;;;5055116;28;20410;-81
2022/11/03 17:40:12;;;;;;;19.70;11.00;;;8.20;96.30;;;;;;5056198;28;20434;-81
2022/11/03 17:42:38;;;;;;;14.77;9.30;;;8.20;96.30;;;;;;5057469;28;20189;-81
2022/11/03 17:45:05;;;;;;;15.80;10.77;;;8.20;96.30;;;;;;5056122;28;21060;-82
2022/11/03 17:47:31;;;;;;;21.43;12.90;;;8.20;96.30;;;;;;5056165;28;20187;-82
2022/11/03 17:49:56;;;;;;;17.93;13.23;;;8.20;96.30;;;;;;5056351;28;20840;-82
2022/11/03 17:52:28;;;;;;;35.47;23.83;;;8.20;96.30;;;;;;5055159;28;20562;-81
2022/11/03 17:54:57;;;;;;;20.43;8.77;;;8.20;96.30;;;;;;5053470;28;20308;-81
2022/11/03 17:57:22;;;;;;;20.77;13.27;;;8.30;96.30;;;;;;5056921;28;20410;-81
2022/11/03 17:59:51;;;;;;;11.87;9.23;;;8.30;96.30;;;;;;5057597;28;20418;-82
2022/11/03 18:02:36;;;;;;;21.33;12.63;;;8.30;96.30;;;;;;5057699;28;20282;-82
2022/11/03 18:05:28;;;;;;;20.50;10.80;;;8.20;96.30;;;;;;5056791;28;20538;-81
2022/11/03 18:07:57;;;;;;;14.70;10.07;;;8.20;96.30;;;;;;5056541;28;20390;-81
2022/11/03 18:10:28;;;;;;;14.97;10.50;;;8.20;96.30;;;;;;5055047;28;20936;-82
2022/11/03 18:13:15;;;;;;;19.57;11.63;;;8.30;96.30;;;;;;5055403;28;20410;-81
2022/11/03 18:15:48;;;;;;;18.37;12.70;;;8.30;96.30;;;;;;5055988;28;20877;-81
2022/11/03 18:18:19;;;;;;;18.53;12.27;;;8.30;96.30;;;;;;5055872;28;20403;-81
2022/11/03 18:20:51;;;;;;;16.17;11.13;;;8.40;96.30;;;;;;5055065;28;20434;-82
2022/11/03 18:23:22;;;;;;;16.97;12.50;;;8.50;96.30;;;;;;5056731;28;20414;-81
2022/11/03 18:25:48;;;;;;;22.47;12.80;;;8.50;96.30;;;;;;5056659;28;20466;-80
2022/11/03 18:28:15;;;;;;;19.73;12.53;;;8.50;96.30;;;;;;5053735;28;20445;-82
2022/11/03 18:30:42;;;;;;;19.37;11.57;;;8.50;96.30;;;;;;5054709;28;20286;-81
2022/11/03 18:33:34;;;;;;;25.50;12.00;;;8.50;96.30;;;;;;5056226;28;20417;-82
2022/11/03 18:36:05;;;;;;;22.73;12.30;;;8.70;96.30;;;;;;5054230;28;20422;-82
2022/11/03 18:38:35;;;;;;;15.00;10.90;;;8.60;96.30;;;;;;5054270;28;20835;-81
2022/11/03 18:41:00;;;;;;;13.77;10.20;;;8.70;96.30;;;;;;5053286;28;20532;-81
2022/11/03 18:43:27;;;;;;;18.23;11.93;;;8.70;96.30;;;;;;5054078;28;21006;-82
2022/11/03 18:45:53;;;;;;;20.30;12.00;;;8.70;96.30;;;;;;5054304;28;20663;-81
2022/11/03 18:48:19;;;;;;;16.80;12.57;;;8.70;96.30;;;;;;5056282;28;20417;-82
2022/11/03 18:50:50;;;;;;;16.57;11.70;;;8.70;96.30;;;;;;5055973;28;20202;-82
2022/11/03 18:53:26;;;;;;;20.10;12.00;;;8.70;96.30;;;;;;5055269;28;20597;-81
2022/11/03 18:55:56;;;;;;;17.13;11.97;;;8.70;96.30;;;;;;5057074;28;20456;-81
2022/11/03 18:58:23;;;;;;;13.10;10.70;;;8.70;96.30;;;;;;5055300;28;20465;-82
2022/11/03 19:00:51;;;;;;;17.87;11.43;;;8.70;96.30;;;;;;5055864;28;20861;-82
2022/11/03 19:03:19;;;;;;;15.37;11.27;;;8.60;96.30;;;;;;5058094;28;20405;-82
2022/11/03 19:05:47;;;;;;;22.17;12.13;;;8.60;96.30;;;;;;5055423;28;20422;-82
2022/11/03 19:08:23;;;;;;;19.10;11.17;;;8.50;96.30;;;;;;5055207;28;20418;-81
2022/11/03 19:10:50;;;;;;;11.80;10.50;;;8.50;96.30;;;;;;5056513;28;20809;-82
2022/11/03 19:13:26;;;;;;;13.93;10.60;;;8.50;96.30;;;;;;5057557;28;20786;-81
2022/11/03 19:15:52;;;;;;;15.60;10.30;;;8.50;96.30;;;;;;5056266;28;20410;-81
2022/11/03 19:18:18;;;;;;;11.97;9.37;;;8.60;96.30;;;;;;5058034;28;20411;-81
2022/11/03 19:20:43;;;;;;;14.67;9.73;;;8.50;96.30;;;;;;5056842;28;20533;-81
2022/11/03 19:23:09;;;;;;;12.00;9.70;;;8.50;96.30;;;;;;5055139;28;20428;-81
2022/11/03 19:25:36;;;;;;;11.50;8.67;;;8.50;96.30;;;;;;5054931;28;20226;-80
2022/11/03 19:28:02;;;;;;;13.93;8.97;;;8.50;96.30;;;;;;5054823;28;20599;-82
2022/11/03 19:30:27;;;;;;;19.30;10.97;;;8.50;96.30;;;;;;5056243;28;20984;-81
2022/11/03 19:32:55;;;;;;;16.23;10.13;;;8.50;96.30;;;;;;5056424;28;20194;-81
2022/11/03 19:35:32;;;;;;;17.00;10.53;;;8.50;96.30;;;;;;5054810;28;20262;-81
2022/11/03 19:38:05;;;;;;;16.47;10.57;;;8.60;96.30;;;;;;5054264;28;20498;-81
2022/11/03 19:40:32;;;;;;;12.27;8.40;;;8.60;96.30;;;;;;5054878;28;20442;-81
2022/11/03 19:42:58;;;;;;;15.10;8.63;;;8.70;96.30;;;;;;5054994;28;20418;-81
2022/11/03 19:45:23;;;;;;;17.60;10.30;;;8.80;96.30;;;;;;5056550;28;20446;-81
2022/11/03 19:47:55;;;;;;;13.87;9.80;;;8.70;96.30;;;;;;5056218;28;21000;-81
2022/11/03 20:36:26;;;;;;;12.00;8.80;;;8.40;96.30;;;;;;5076277;28;20455;-80
2022/11/03 23:54:16;;;;;;;28.17;20.60;;;8.80;96.30;;;;;;5920127;23;20814;-82
2022/11/03 23:59:30;;;;;;;22.20;17.47;;;8.70;96.30;;;;;;4959327;29;20492;-81
